NVT weather

Ministro Victor Konder International Airport
Navegantes, Santa Catarina, Brazil

Public forecast

Using degrees Celsius for public forecast. Weather courtesy of forecast.io.

METAR (pilot weather report)

Retrieved 2019/07/21 01:00 UTC (41 minutes ago):

SBNF 210100Z 00000KT 3000 1400E BR BKN002 BKN005 14/14 Q1021

TAF (pilot weather forecast)

Retrieved 2019/07/21 00:00 UTC (2 hours ago):

TAF SBNF 202100Z 2100/2124 28005KT 8000 BKN004 TN15/2106Z TX21/2115Z TEMPO 2102/2112 0500 FG VV002 BECMG 2112/2114 06005KT 9999 NSW SCT020 BECMG 2120/2122 36005KT RMK PFF